createdAt,value
2022-12-29T00:00:16.279Z,0.00
2022-12-29T00:01:16.263Z,0.00
2022-12-29T00:02:16.294Z,0.00
2022-12-29T00:03:16.343Z,0.00
2022-12-29T00:04:16.329Z,0.00
2022-12-29T00:05:16.254Z,0.00
2022-12-29T00:06:16.226Z,0.00
2022-12-29T00:07:48.156Z,0.00
2022-12-29T00:08:16.311Z,0.00
2022-12-29T00:09:16.210Z,0.00
2022-12-29T00:10:16.213Z,0.00
2022-12-29T00:11:16.213Z,0.00
2022-12-29T00:12:16.156Z,0.00
2022-12-29T00:13:16.164Z,0.00
2022-12-29T00:14:19.228Z,0.00
2022-12-29T00:15:17.188Z,0.00
2022-12-29T00:16:16.162Z,0.00
2022-12-29T00:17:16.145Z,0.00
2022-12-29T00:18:16.123Z,0.00
2022-12-29T00:19:16.143Z,0.00
2022-12-29T00:20:16.109Z,0.00
2022-12-29T00:21:16.078Z,0.00
2022-12-29T00:22:16.066Z,0.00
2022-12-29T00:23:16.336Z,0.00
2022-12-29T00:24:16.162Z,0.00
2022-12-29T00:25:16.070Z,0.00
2022-12-29T00:26:16.036Z,0.00
2022-12-29T00:27:16.040Z,0.00
2022-12-29T00:28:16.101Z,0.00
2022-12-29T00:29:16.002Z,0.00
2022-12-29T00:30:16.028Z,0.00
2022-12-29T00:31:16.033Z,0.00
2022-12-29T00:32:15.985Z,0.00
2022-12-29T00:33:15.968Z,0.00
2022-12-29T00:34:15.963Z,0.00
2022-12-29T00:35:15.962Z,0.00
2022-12-29T00:36:15.942Z,0.00
2022-12-29T00:37:15.926Z,0.00
2022-12-29T00:38:15.927Z,0.00
2022-12-29T00:39:15.916Z,0.00
2022-12-29T00:40:15.926Z,0.00
2022-12-29T00:41:15.906Z,0.00
2022-12-29T00:42:15.885Z,0.00
2022-12-29T00:43:15.882Z,0.00
2022-12-29T00:44:15.873Z,0.00
2022-12-29T00:45:15.876Z,0.00
2022-12-29T00:46:19.776Z,0.00
2022-12-29T00:47:16.911Z,0.00
2022-12-29T00:48:15.835Z,0.00
2022-12-29T00:49:15.830Z,0.00
2022-12-29T00:50:15.833Z,0.00
2022-12-29T00:51:15.816Z,0.00
2022-12-29T00:52:15.816Z,0.00
2022-12-29T00:53:15.809Z,0.00
2022-12-29T00:54:15.794Z,0.00
2022-12-29T00:55:15.794Z,0.00
2022-12-29T00:56:15.766Z,0.00
2022-12-29T00:57:15.763Z,0.00
2022-12-29T00:58:15.751Z,0.00
2022-12-29T00:59:15.737Z,0.00
2022-12-29T01:00:15.740Z,0.00
2022-12-29T01:01:15.744Z,0.00
2022-12-29T01:02:15.834Z,0.00
2022-12-29T01:03:15.725Z,0.00
2022-12-29T01:04:15.711Z,0.00
2022-12-29T01:05:15.694Z,0.00
2022-12-29T01:06:15.678Z,0.00
2022-12-29T01:07:15.662Z,0.00
2022-12-29T01:08:15.660Z,0.00
2022-12-29T01:09:15.651Z,0.00
2022-12-29T01:10:15.735Z,0.00
2022-12-29T01:11:15.651Z,0.00
2022-12-29T01:12:15.671Z,0.00
2022-12-29T01:13:15.624Z,0.00
2022-12-29T01:14:15.612Z,0.00
2022-12-29T01:15:15.627Z,0.00
2022-12-29T01:16:15.676Z,0.00
2022-12-29T01:17:15.627Z,0.00
2022-12-29T01:18:15.616Z,0.00
2022-12-29T01:19:15.563Z,0.00
2022-12-29T01:20:15.574Z,0.00
2022-12-29T01:21:15.576Z,0.00
2022-12-29T01:22:15.560Z,0.00
2022-12-29T01:23:15.534Z,0.00
2022-12-29T01:24:15.514Z,0.00
2022-12-29T01:25:15.555Z,0.00
2022-12-29T01:26:15.499Z,0.00
2022-12-29T01:27:15.494Z,0.00
2022-12-29T01:28:15.484Z,0.00
2022-12-29T01:29:15.475Z,0.00
2022-12-29T01:30:15.484Z,0.00
2022-12-29T01:31:15.482Z,0.00
2022-12-29T01:32:15.462Z,0.00
2022-12-29T01:33:15.439Z,0.00
2022-12-29T01:34:15.427Z,0.00
2022-12-29T01:35:15.452Z,0.00
2022-12-29T01:36:15.413Z,0.00
2022-12-29T01:37:15.400Z,0.00
2022-12-29T01:38:15.394Z,0.00
2022-12-29T01:39:15.390Z,0.00
2022-12-29T01:40:15.382Z,0.00
2022-12-29T01:41:15.366Z,0.00
2022-12-29T01:42:15.370Z,0.00
2022-12-29T01:43:15.371Z,0.00
2022-12-29T01:44:15.333Z,0.00
2022-12-29T01:45:15.370Z,0.00
2022-12-29T01:46:15.326Z,0.00
2022-12-29T01:47:15.314Z,0.00
2022-12-29T01:48:15.296Z,0.00
2022-12-29T01:49:15.342Z,0.00
2022-12-29T01:50:15.295Z,0.00
2022-12-29T01:51:15.274Z,0.00
2022-12-29T01:52:16.260Z,0.00
2022-12-29T01:53:15.253Z,0.00
2022-12-29T01:54:15.254Z,0.00
2022-12-29T01:55:15.256Z,0.00
2022-12-29T01:56:15.229Z,0.00
2022-12-29T01:57:15.275Z,0.00
2022-12-29T01:58:15.208Z,0.00
2022-12-29T01:59:15.215Z,0.00
2022-12-29T02:00:15.315Z,0.00
2022-12-29T02:01:15.201Z,0.00
2022-12-29T02:02:15.304Z,0.00
2022-12-29T02:03:15.258Z,0.00
2022-12-29T02:04:15.156Z,0.00
2022-12-29T02:05:15.214Z,0.00
2022-12-29T02:06:15.143Z,0.00
2022-12-29T02:07:15.121Z,0.00
2022-12-29T02:08:15.123Z,0.00
2022-12-29T02:09:15.108Z,0.00
2022-12-29T02:10:15.110Z,0.00
2022-12-29T02:11:15.100Z,0.00
2022-12-29T02:12:15.083Z,0.00
2022-12-29T02:13:15.072Z,0.00
2022-12-29T02:14:15.050Z,0.00
2022-12-29T02:15:15.064Z,0.00
2022-12-29T02:16:15.175Z,0.00
2022-12-29T02:17:15.032Z,0.00
2022-12-29T02:18:15.069Z,0.00
2022-12-29T02:19:15.020Z,0.00
2022-12-29T02:20:15.016Z,0.00
2022-12-29T02:21:14.997Z,0.00
2022-12-29T02:22:14.984Z,0.00
2022-12-29T02:23:14.973Z,0.00
2022-12-29T02:24:14.978Z,0.00
2022-12-29T02:25:14.956Z,0.00
2022-12-29T02:26:14.962Z,0.00
2022-12-29T02:27:14.946Z,0.00
2022-12-29T02:28:14.932Z,0.00
2022-12-29T02:29:14.931Z,0.00
2022-12-29T02:30:14.918Z,0.00
2022-12-29T02:31:14.960Z,0.00
2022-12-29T02:32:14.912Z,0.00
2022-12-29T02:33:14.905Z,0.00
2022-12-29T02:34:14.879Z,0.00
2022-12-29T02:35:14.875Z,0.00
2022-12-29T02:36:14.887Z,0.00
2022-12-29T02:37:14.852Z,0.00
2022-12-29T02:38:14.848Z,0.00
2022-12-29T02:39:14.895Z,0.00
2022-12-29T02:40:14.831Z,0.00
2022-12-29T02:41:14.978Z,0.00
2022-12-29T02:42:14.816Z,0.00
2022-12-29T02:43:14.899Z,0.00
2022-12-29T02:44:14.806Z,0.00
2022-12-29T02:45:14.790Z,0.00
2022-12-29T02:46:14.826Z,0.00
2022-12-29T02:47:14.765Z,0.00
2022-12-29T02:48:14.751Z,0.00
2022-12-29T02:49:14.747Z,0.00
2022-12-29T02:50:14.740Z,0.00
2022-12-29T02:51:14.743Z,0.00
2022-12-29T02:52:14.724Z,0.00
2022-12-29T02:53:14.828Z,0.00
2022-12-29T02:54:14.699Z,0.00
2022-12-29T02:55:14.699Z,0.00
2022-12-29T02:56:14.704Z,0.00
2022-12-29T02:57:14.810Z,0.00
2022-12-29T02:58:14.669Z,0.00
2022-12-29T02:59:14.696Z,0.00
2022-12-29T03:00:14.683Z,0.00
2022-12-29T03:01:14.692Z,0.00
2022-12-29T03:02:14.764Z,0.00
2022-12-29T03:03:14.739Z,0.00
2022-12-29T03:04:14.615Z,0.00
2022-12-29T03:05:14.608Z,0.00
2022-12-29T03:06:14.619Z,0.00
2022-12-29T03:07:14.583Z,0.00
2022-12-29T03:08:14.583Z,0.00
2022-12-29T03:09:19.086Z,0.00
2022-12-29T03:10:14.567Z,0.00
2022-12-29T03:11:14.557Z,0.00
2022-12-29T03:12:14.579Z,0.00
2022-12-29T03:13:14.536Z,0.00
2022-12-29T03:14:14.516Z,0.00
2022-12-29T03:15:14.506Z,0.00
2022-12-29T03:16:14.619Z,0.00
2022-12-29T03:17:14.554Z,0.00
2022-12-29T03:18:14.485Z,0.00
2022-12-29T03:19:14.490Z,0.00
2022-12-29T03:20:14.465Z,0.00
2022-12-29T03:21:14.469Z,0.00
2022-12-29T03:22:14.451Z,0.00
2022-12-29T03:23:14.446Z,0.00
2022-12-29T03:24:14.457Z,0.00
2022-12-29T03:25:14.423Z,0.00
2022-12-29T03:26:14.542Z,0.00
2022-12-29T03:27:14.410Z,0.00
2022-12-29T03:28:14.424Z,0.00
2022-12-29T03:29:14.401Z,0.00
2022-12-29T03:30:14.382Z,0.00
2022-12-29T03:31:14.472Z,0.00
2022-12-29T03:32:14.373Z,0.00
2022-12-29T03:33:14.377Z,0.00
2022-12-29T03:34:14.358Z,0.00
2022-12-29T03:35:14.337Z,0.00
2022-12-29T03:36:14.344Z,0.00
2022-12-29T03:37:14.347Z,0.00
2022-12-29T03:38:14.317Z,0.00
2022-12-29T03:39:14.397Z,0.00
2022-12-29T03:40:14.299Z,0.00
2022-12-29T03:41:14.298Z,0.00
2022-12-29T03:42:14.284Z,0.00
2022-12-29T03:43:14.268Z,0.00
2022-12-29T03:44:14.262Z,0.00
2022-12-29T03:45:14.260Z,0.00
2022-12-29T03:46:14.296Z,0.00
2022-12-29T03:47:14.249Z,0.00
2022-12-29T03:48:15.228Z,0.00
2022-12-29T03:49:14.219Z,0.00
2022-12-29T03:50:14.209Z,0.00
2022-12-29T03:51:14.213Z,0.00
2022-12-29T03:52:14.192Z,0.00
2022-12-29T03:53:14.191Z,0.00
2022-12-29T03:54:14.168Z,0.00
2022-12-29T03:55:15.178Z,0.00
2022-12-29T03:56:14.170Z,0.00
2022-12-29T03:57:14.155Z,0.00
2022-12-29T03:58:14.158Z,0.00
2022-12-29T03:59:14.137Z,0.00
2022-12-29T04:00:14.126Z,0.00
2022-12-29T04:01:14.327Z,0.00
2022-12-29T04:02:14.470Z,0.00
2022-12-29T04:03:14.116Z,0.00
2022-12-29T04:04:14.088Z,0.00
2022-12-29T04:05:14.080Z,0.00
2022-12-29T04:06:14.080Z,0.00
2022-12-29T04:07:14.069Z,0.00
2022-12-29T04:08:14.052Z,0.00
2022-12-29T04:09:14.043Z,0.00
2022-12-29T04:10:14.029Z,0.00
2022-12-29T04:11:14.030Z,0.00
2022-12-29T04:12:14.032Z,0.00
2022-12-29T04:13:14.010Z,0.00
2022-12-29T04:14:13.996Z,0.00
2022-12-29T04:15:13.990Z,0.00
2022-12-29T04:16:14.064Z,0.00
2022-12-29T04:17:13.985Z,0.00
2022-12-29T04:18:13.961Z,0.00
2022-12-29T04:19:13.954Z,0.00
2022-12-29T04:20:13.962Z,0.00
2022-12-29T04:21:13.948Z,0.00
2022-12-29T04:22:13.935Z,0.00
2022-12-29T04:23:13.919Z,0.00
2022-12-29T04:24:13.905Z,0.00
2022-12-29T04:25:13.907Z,0.00
2022-12-29T04:26:13.898Z,0.00
2022-12-29T04:27:13.886Z,0.00
2022-12-29T04:28:13.875Z,0.00
2022-12-29T04:29:13.875Z,0.00
2022-12-29T04:30:13.863Z,0.00
2022-12-29T04:31:13.889Z,0.00
2022-12-29T04:32:13.847Z,0.00
2022-12-29T04:33:13.843Z,0.00
2022-12-29T04:34:13.822Z,0.00
2022-12-29T04:35:13.812Z,0.00
2022-12-29T04:36:13.815Z,0.00
2022-12-29T04:37:13.800Z,0.00
2022-12-29T04:38:13.827Z,0.00
2022-12-29T04:39:13.769Z,0.00
2022-12-29T04:40:13.781Z,0.00
2022-12-29T04:41:13.766Z,0.00
2022-12-29T04:42:13.748Z,0.00
2022-12-29T04:43:13.755Z,0.00
2022-12-29T04:44:13.740Z,0.00
2022-12-29T04:45:13.720Z,0.00
2022-12-29T04:46:13.751Z,0.00
2022-12-29T04:47:13.706Z,0.00
2022-12-29T04:48:13.714Z,0.00
2022-12-29T04:49:13.684Z,0.00
2022-12-29T04:50:13.680Z,0.00
2022-12-29T04:51:13.926Z,0.00
2022-12-29T04:52:13.665Z,0.00
2022-12-29T04:53:13.646Z,0.00
2022-12-29T04:54:13.637Z,0.00
2022-12-29T04:55:13.656Z,0.00
2022-12-29T04:56:13.671Z,0.00
2022-12-29T04:57:13.627Z,0.00
2022-12-29T04:58:18.970Z,0.00
2022-12-29T04:59:15.605Z,0.00
2022-12-29T05:00:13.621Z,0.00
2022-12-29T05:01:13.609Z,0.00
2022-12-29T05:02:13.629Z,0.00
2022-12-29T05:03:13.675Z,0.00
2022-12-29T05:04:13.552Z,0.00
2022-12-29T05:05:13.569Z,0.00
2022-12-29T05:06:13.577Z,0.00
2022-12-29T05:07:13.522Z,0.00
2022-12-29T05:08:13.521Z,0.00
2022-12-29T05:09:13.508Z,0.00
2022-12-29T05:10:13.519Z,0.00
2022-12-29T05:11:13.495Z,0.00
2022-12-29T05:12:13.502Z,0.00
2022-12-29T05:13:13.477Z,0.00
2022-12-29T05:14:13.463Z,0.00
2022-12-29T05:15:13.482Z,0.00
2022-12-29T05:16:13.508Z,0.00
2022-12-29T05:17:13.449Z,0.00
2022-12-29T05:18:13.429Z,0.00
2022-12-29T05:19:13.423Z,0.00
2022-12-29T05:20:13.425Z,0.00
2022-12-29T05:21:13.444Z,0.00
2022-12-29T05:22:13.397Z,0.00
2022-12-29T05:23:13.384Z,0.00
2022-12-29T05:24:13.366Z,0.00
2022-12-29T05:25:14.360Z,0.00
2022-12-29T05:26:13.363Z,0.00
2022-12-29T05:27:13.356Z,0.00
2022-12-29T05:28:13.340Z,0.00
2022-12-29T05:29:13.325Z,0.00
2022-12-29T05:30:13.329Z,0.00
2022-12-29T05:31:13.322Z,0.00
2022-12-29T05:32:13.319Z,0.00
2022-12-29T05:33:14.292Z,0.00
2022-12-29T05:34:13.303Z,0.00
2022-12-29T05:35:13.276Z,0.00
2022-12-29T05:36:13.274Z,0.00
2022-12-29T05:37:13.271Z,0.00
2022-12-29T05:38:13.247Z,0.00
2022-12-29T05:39:13.242Z,0.00
2022-12-29T05:40:13.230Z,0.00
2022-12-29T05:41:13.224Z,0.00
2022-12-29T05:42:13.222Z,0.00
2022-12-29T05:43:13.218Z,0.00
2022-12-29T05:44:13.234Z,0.00
2022-12-29T05:45:13.207Z,0.00
2022-12-29T05:46:13.195Z,0.00
2022-12-29T05:47:13.246Z,0.00
2022-12-29T05:48:13.160Z,0.00
2022-12-29T05:49:13.177Z,0.00
2022-12-29T05:50:13.147Z,0.00
2022-12-29T05:51:13.132Z,0.00
2022-12-29T05:52:13.138Z,0.00
2022-12-29T05:53:13.140Z,0.00
2022-12-29T05:54:13.119Z,0.00
2022-12-29T05:55:13.096Z,0.00
2022-12-29T05:56:13.096Z,0.00
2022-12-29T05:57:13.112Z,0.00
2022-12-29T05:58:13.070Z,0.00
2022-12-29T05:59:13.096Z,0.00
2022-12-29T06:00:13.067Z,0.00
2022-12-29T06:01:13.043Z,0.00
2022-12-29T06:02:13.310Z,0.00
2022-12-29T06:03:13.269Z,0.00
2022-12-29T06:04:13.042Z,0.00
2022-12-29T06:05:13.020Z,0.00
2022-12-29T06:06:12.999Z,0.00
2022-12-29T06:07:44.915Z,0.00
2022-12-29T06:08:13.012Z,0.00
2022-12-29T06:09:12.972Z,0.00
2022-12-29T06:10:12.972Z,0.00
2022-12-29T06:11:12.963Z,0.00
2022-12-29T06:12:12.958Z,0.00
2022-12-29T06:13:12.941Z,0.00
2022-12-29T06:14:12.930Z,0.00
2022-12-29T06:15:12.916Z,0.00
2022-12-29T06:16:12.943Z,0.00
2022-12-29T06:17:12.910Z,0.00
2022-12-29T06:18:19.553Z,0.00
2022-12-29T06:19:14.897Z,0.00
2022-12-29T06:20:12.876Z,0.00
2022-12-29T06:21:12.871Z,0.00
2022-12-29T06:22:12.888Z,0.00
2022-12-29T06:23:12.854Z,0.00
2022-12-29T06:24:12.863Z,0.00
2022-12-29T06:25:13.841Z,0.00
2022-12-29T06:26:12.831Z,0.00
2022-12-29T06:27:12.846Z,0.00
2022-12-29T06:28:12.817Z,0.00
2022-12-29T06:29:12.797Z,0.00
2022-12-29T06:30:12.806Z,0.00
2022-12-29T06:31:12.881Z,0.00
2022-12-29T06:32:12.877Z,0.00
2022-12-29T06:33:12.775Z,0.00
2022-12-29T06:34:12.766Z,0.00
2022-12-29T06:35:12.749Z,0.00
2022-12-29T06:36:12.737Z,0.00
2022-12-29T06:37:12.733Z,0.00
2022-12-29T06:38:12.720Z,0.00
2022-12-29T06:39:12.709Z,0.00
2022-12-29T06:40:12.701Z,0.00
2022-12-29T06:41:12.707Z,0.00
2022-12-29T06:42:12.695Z,0.00
2022-12-29T06:43:12.673Z,0.00
2022-12-29T06:44:12.669Z,0.00
2022-12-29T06:45:12.655Z,0.00
2022-12-29T06:46:12.702Z,0.00
2022-12-29T06:47:12.651Z,0.00
2022-12-29T06:48:12.626Z,0.00
2022-12-29T06:49:12.625Z,0.00
2022-12-29T06:50:12.611Z,0.00
2022-12-29T06:51:12.601Z,0.00
2022-12-29T06:52:13.392Z,0.00
2022-12-29T06:53:13.590Z,0.00
2022-12-29T06:54:12.575Z,0.00
2022-12-29T06:55:12.572Z,0.00
2022-12-29T06:56:12.554Z,0.00
2022-12-29T06:57:12.548Z,0.00
2022-12-29T06:58:12.542Z,0.00
2022-12-29T06:59:12.532Z,0.00
2022-12-29T07:00:12.524Z,0.00
2022-12-29T07:01:12.555Z,0.00
2022-12-29T07:02:12.801Z,0.00
2022-12-29T07:03:12.537Z,4.00
2022-12-29T07:04:12.513Z,0.00
2022-12-29T07:05:12.493Z,4.00
2022-12-29T07:06:12.496Z,0.00
2022-12-29T07:07:12.481Z,4.00
2022-12-29T07:08:12.470Z,4.00
2022-12-29T07:09:12.449Z,4.00
2022-12-29T07:10:12.451Z,4.00
2022-12-29T07:11:12.421Z,8.00
2022-12-29T07:12:12.453Z,8.00
2022-12-29T07:13:12.411Z,8.00
2022-12-29T07:14:12.395Z,8.00
2022-12-29T07:15:12.384Z,8.00
2022-12-29T07:16:12.421Z,4.00
2022-12-29T07:17:12.476Z,4.00
2022-12-29T07:18:12.359Z,8.00
2022-12-29T07:19:12.353Z,12.00
2022-12-29T07:20:12.349Z,16.00
2022-12-29T07:21:12.334Z,16.00
2022-12-29T07:22:12.336Z,8.00
2022-12-29T07:23:12.316Z,12.00
2022-12-29T07:24:12.307Z,12.00
2022-12-29T07:25:12.318Z,16.00
2022-12-29T07:26:12.291Z,12.00
2022-12-29T07:27:12.304Z,16.00
2022-12-29T07:28:12.275Z,16.00
2022-12-29T07:29:12.275Z,16.00
2022-12-29T07:30:12.273Z,20.00
2022-12-29T07:31:12.253Z,16.00
2022-12-29T07:32:12.285Z,12.00
2022-12-29T07:33:12.232Z,16.00
2022-12-29T07:34:12.221Z,16.00
2022-12-29T07:35:12.216Z,12.00
2022-12-29T07:36:12.195Z,16.00
2022-12-29T07:37:12.199Z,20.00
2022-12-29T07:38:12.181Z,28.00
2022-12-29T07:39:12.169Z,32.00
2022-12-29T07:40:12.167Z,36.00
2022-12-29T07:41:12.156Z,24.00
2022-12-29T07:42:12.155Z,36.00
2022-12-29T07:43:12.137Z,40.00
2022-12-29T07:44:12.136Z,40.00
2022-12-29T07:45:12.251Z,36.00
2022-12-29T07:46:53.516Z,40.00
2022-12-29T07:47:14.144Z,44.00
2022-12-29T07:48:12.132Z,52.00
2022-12-29T07:49:13.082Z,60.00
2022-12-29T07:50:12.102Z,64.00
2022-12-29T07:51:12.065Z,52.00
2022-12-29T07:52:12.070Z,44.00
2022-12-29T07:53:12.052Z,28.00
2022-12-29T07:54:12.040Z,24.00
2022-12-29T07:55:12.039Z,32.00
2022-12-29T07:56:12.023Z,36.00
2022-12-29T07:57:12.028Z,32.00
2022-12-29T07:58:12.006Z,48.00
2022-12-29T07:59:11.995Z,44.00
2022-12-29T08:00:11.988Z,44.00
2022-12-29T08:01:12.040Z,68.00
2022-12-29T08:02:12.135Z,68.00
2022-12-29T08:03:11.962Z,60.00
2022-12-29T08:04:11.991Z,60.00
2022-12-29T08:05:11.939Z,60.00
2022-12-29T08:06:11.935Z,76.00
2022-12-29T08:07:11.935Z,52.00
2022-12-29T08:08:11.909Z,60.00
2022-12-29T08:09:16.703Z,68.00
2022-12-29T08:10:13.906Z,56.00
2022-12-29T08:11:11.885Z,72.00
2022-12-29T08:12:11.886Z,112.00
2022-12-29T08:13:11.869Z,112.00
2022-12-29T08:14:11.866Z,104.00
2022-12-29T08:15:11.856Z,72.00
2022-12-29T08:16:11.927Z,100.00
2022-12-29T08:17:11.840Z,136.00
2022-12-29T08:18:11.827Z,108.00
2022-12-29T08:19:11.817Z,148.00
2022-12-29T08:20:11.811Z,128.00
2022-12-29T08:21:11.805Z,116.00
2022-12-29T08:22:11.786Z,84.00
2022-12-29T08:23:11.791Z,92.00
2022-12-29T08:24:11.771Z,104.00
2022-12-29T08:25:11.762Z,108.00
2022-12-29T08:26:11.753Z,96.00
2022-12-29T08:27:19.699Z,104.00
2022-12-29T08:28:13.745Z,108.00
2022-12-29T08:29:11.723Z,144.00
2022-12-29T08:30:11.716Z,120.00
2022-12-29T08:31:11.733Z,136.00
2022-12-29T08:32:11.697Z,108.00
2022-12-29T08:33:11.704Z,112.00
2022-12-29T08:34:11.688Z,100.00
2022-12-29T08:35:11.677Z,100.00
2022-12-29T08:36:11.664Z,84.00
2022-12-29T08:37:11.657Z,116.00
2022-12-29T08:38:11.656Z,116.00
2022-12-29T08:39:11.632Z,172.00
2022-12-29T08:40:11.628Z,176.00
2022-12-29T08:41:11.613Z,140.00
2022-12-29T08:42:11.615Z,104.00
2022-12-29T08:43:11.612Z,88.00
2022-12-29T08:44:11.602Z,100.00
2022-12-29T08:45:11.595Z,104.00
2022-12-29T08:46:11.634Z,108.00
2022-12-29T08:47:11.573Z,120.00
2022-12-29T08:48:11.562Z,92.00
2022-12-29T08:49:11.543Z,108.00
2022-12-29T08:50:11.542Z,96.00
2022-12-29T08:51:11.526Z,108.00
2022-12-29T08:52:11.509Z,100.00
2022-12-29T08:53:12.517Z,96.00
2022-12-29T08:54:11.502Z,108.00
2022-12-29T08:55:11.502Z,112.00
2022-12-29T08:56:11.482Z,132.00
2022-12-29T08:57:11.484Z,120.00
2022-12-29T08:58:11.483Z,96.00
2022-12-29T08:59:11.467Z,92.00
2022-12-29T09:00:11.491Z,88.00
2022-12-29T09:01:11.480Z,92.00
2022-12-29T09:02:11.569Z,104.00
2022-12-29T09:03:11.540Z,100.00
2022-12-29T09:04:16.625Z,112.00
2022-12-29T09:05:13.455Z,108.00
2022-12-29T09:06:11.396Z,80.00
2022-12-29T09:07:11.387Z,76.00
2022-12-29T09:08:11.381Z,88.00
2022-12-29T09:09:11.384Z,100.00
2022-12-29T09:10:11.379Z,136.00
2022-12-29T09:11:11.352Z,220.00
2022-12-29T09:12:11.336Z,296.00
2022-12-29T09:13:11.336Z,440.00
2022-12-29T09:14:11.332Z,480.00
2022-12-29T09:15:11.306Z,584.00
2022-12-29T09:16:11.481Z,720.00
2022-12-29T09:17:11.297Z,756.00
2022-12-29T09:18:16.270Z,920.00
2022-12-29T09:19:12.274Z,924.00
2022-12-29T09:20:11.276Z,888.00
2022-12-29T09:21:11.255Z,760.00
2022-12-29T09:22:11.253Z,740.00
2022-12-29T09:23:11.249Z,864.00
2022-12-29T09:24:11.235Z,912.00
2022-12-29T09:25:11.224Z,864.00
2022-12-29T09:26:11.217Z,1004.00
2022-12-29T09:27:11.213Z,1012.00
2022-12-29T09:28:11.203Z,1204.00
2022-12-29T09:29:11.181Z,1352.00
2022-12-29T09:30:11.176Z,1512.00
2022-12-29T09:31:11.200Z,1368.00
2022-12-29T09:32:17.106Z,1232.00
2022-12-29T09:33:13.181Z,1332.00
2022-12-29T09:34:11.137Z,1408.00
2022-12-29T09:35:11.127Z,1612.00
2022-12-29T09:36:11.122Z,1420.00
2022-12-29T09:37:11.118Z,1200.00
2022-12-29T09:38:11.113Z,1236.00
2022-12-29T09:39:11.089Z,1144.00
2022-12-29T09:40:11.126Z,1384.00
2022-12-29T09:41:11.077Z,1456.00
2022-12-29T09:42:11.070Z,1640.00
2022-12-29T09:43:11.064Z,1616.00
2022-12-29T09:44:11.050Z,1668.00
2022-12-29T09:45:11.046Z,1972.00
2022-12-29T09:46:11.092Z,2308.00
2022-12-29T09:47:11.164Z,9356.00
2022-12-29T09:48:11.041Z,39392.00
2022-12-29T09:49:11.007Z,72736.00
2022-12-29T09:50:10.987Z,9600.00
2022-12-29T09:51:11.991Z,32576.00
2022-12-29T09:52:10.982Z,6508.00
2022-12-29T09:53:11.001Z,3048.00
2022-12-29T09:54:10.969Z,5792.00
2022-12-29T09:55:14.153Z,78208.00
2022-12-29T09:56:11.943Z,7296.00
2022-12-29T09:57:10.939Z,2812.00
2022-12-29T09:58:10.947Z,61440.00
2022-12-29T09:59:10.921Z,14892.00
2022-12-29T10:00:10.908Z,60576.00
2022-12-29T10:01:10.926Z,73696.00
2022-12-29T10:02:11.129Z,76960.00
2022-12-29T10:03:11.064Z,49792.00
2022-12-29T10:04:10.859Z,61248.00
2022-12-29T10:05:10.859Z,6912.00
2022-12-29T10:06:10.850Z,15008.00
2022-12-29T10:07:29.096Z,2732.00
2022-12-29T10:08:17.242Z,2448.00
2022-12-29T10:09:11.811Z,12276.00
2022-12-29T10:10:10.803Z,3180.00
2022-12-29T10:11:10.799Z,6848.00
2022-12-29T10:12:10.783Z,2420.00
2022-12-29T10:13:10.773Z,6464.00
2022-12-29T10:14:14.016Z,13236.00
2022-12-29T10:15:12.751Z,3504.00
2022-12-29T10:16:10.797Z,3960.00
2022-12-29T10:17:10.730Z,4184.00
2022-12-29T10:18:10.717Z,5888.00
2022-12-29T10:19:10.720Z,4800.00
2022-12-29T10:20:10.736Z,6488.00
2022-12-29T10:21:10.685Z,5392.00
2022-12-29T10:22:10.696Z,4524.00
2022-12-29T10:23:10.669Z,4712.00
2022-12-29T10:24:10.668Z,5388.00
2022-12-29T10:25:10.648Z,3164.00
2022-12-29T10:26:10.637Z,2116.00
2022-12-29T10:27:10.624Z,1716.00
2022-12-29T10:28:10.619Z,1620.00
2022-12-29T10:29:10.612Z,2212.00
2022-12-29T10:30:10.593Z,2516.00
2022-12-29T10:31:10.646Z,2044.00
2022-12-29T10:32:10.632Z,2700.00
2022-12-29T10:33:10.583Z,2132.00
2022-12-29T10:34:10.567Z,1440.00
2022-12-29T10:35:10.540Z,1512.00
2022-12-29T10:36:10.563Z,1416.00
2022-12-29T10:37:10.524Z,1152.00
2022-12-29T10:38:10.533Z,1000.00
2022-12-29T10:39:10.530Z,804.00
2022-12-29T10:40:10.498Z,848.00
2022-12-29T10:41:10.489Z,808.00
2022-12-29T10:42:10.501Z,716.00
2022-12-29T10:43:10.472Z,936.00
2022-12-29T10:44:10.483Z,956.00
2022-12-29T10:45:10.444Z,888.00
2022-12-29T10:46:11.525Z,844.00
2022-12-29T10:47:10.444Z,1012.00
2022-12-29T10:48:10.427Z,1004.00
2022-12-29T10:49:10.438Z,1100.00
2022-12-29T10:50:10.413Z,1788.00
2022-12-29T10:51:10.411Z,2196.00
2022-12-29T10:52:10.406Z,2196.00
2022-12-29T10:53:10.383Z,1668.00
2022-12-29T10:54:10.389Z,1128.00
2022-12-29T10:55:10.378Z,1144.00
2022-12-29T10:56:10.355Z,1128.00
2022-12-29T10:57:10.415Z,1240.00
2022-12-29T10:58:10.902Z,1152.00
2022-12-29T10:59:10.348Z,1096.00
2022-12-29T11:00:10.354Z,1008.00
2022-12-29T11:01:10.409Z,1048.00
2022-12-29T11:02:10.467Z,1020.00
2022-12-29T11:03:10.448Z,920.00
2022-12-29T11:04:10.297Z,1012.00
2022-12-29T11:05:10.280Z,1108.00
2022-12-29T11:06:10.281Z,1156.00
2022-12-29T11:07:15.625Z,1156.00
2022-12-29T11:08:12.240Z,1056.00
2022-12-29T11:09:10.240Z,1092.00
2022-12-29T11:10:10.219Z,1200.00
2022-12-29T11:11:10.211Z,1264.00
2022-12-29T11:12:10.213Z,1380.00
2022-12-29T11:13:10.209Z,1404.00
2022-12-29T11:14:10.237Z,1460.00
2022-12-29T11:15:10.195Z,1412.00
2022-12-29T11:16:10.204Z,1404.00
2022-12-29T11:17:10.159Z,1448.00
2022-12-29T11:18:10.170Z,1476.00
2022-12-29T11:19:10.166Z,1552.00
2022-12-29T11:20:10.123Z,1612.00
2022-12-29T11:21:10.130Z,1552.00
2022-12-29T11:22:10.121Z,1492.00
2022-12-29T11:23:10.100Z,1496.00
2022-12-29T11:24:10.100Z,1584.00
2022-12-29T11:25:10.089Z,1664.00
2022-12-29T11:26:10.069Z,1680.00
2022-12-29T11:27:10.062Z,1612.00
2022-12-29T11:28:10.057Z,1592.00
2022-12-29T11:29:10.049Z,1528.00
2022-12-29T11:30:10.037Z,1552.00
2022-12-29T11:31:10.042Z,1760.00
2022-12-29T11:32:10.059Z,1584.00
2022-12-29T11:33:10.012Z,1524.00
2022-12-29T11:34:10.024Z,1516.00
2022-12-29T11:35:09.992Z,1504.00
2022-12-29T11:36:10.029Z,1476.00
2022-12-29T11:37:09.991Z,1568.00
2022-12-29T11:38:09.976Z,1608.00
2022-12-29T11:39:14.025Z,1576.00
2022-12-29T11:40:10.952Z,1512.00
2022-12-29T11:41:09.940Z,1488.00
2022-12-29T11:42:09.933Z,1468.00
2022-12-29T11:43:09.931Z,1460.00
2022-12-29T11:44:09.924Z,1456.00
2022-12-29T11:45:11.276Z,1224.00
2022-12-29T11:46:11.002Z,1144.00
2022-12-29T11:47:09.889Z,1436.00
2022-12-29T11:48:09.932Z,1524.00
2022-12-29T11:49:09.886Z,1328.00
2022-12-29T11:50:09.873Z,1340.00
2022-12-29T11:51:09.855Z,1432.00
2022-12-29T11:52:09.852Z,1448.00
2022-12-29T11:53:09.838Z,1420.00
2022-12-29T11:54:09.838Z,1448.00
2022-12-29T11:55:09.824Z,1496.00
2022-12-29T11:56:09.828Z,1560.00
2022-12-29T11:57:09.800Z,1588.00
2022-12-29T11:58:09.791Z,1592.00
2022-12-29T11:59:09.813Z,1556.00
2022-12-29T12:00:09.783Z,1520.00
2022-12-29T12:01:09.759Z,1520.00
2022-12-29T12:02:09.890Z,1532.00
2022-12-29T12:03:09.779Z,1504.00
2022-12-29T12:04:09.780Z,1448.00
2022-12-29T12:05:09.730Z,1376.00
2022-12-29T12:06:09.724Z,1304.00
2022-12-29T12:07:09.732Z,1300.00
2022-12-29T12:08:41.610Z,1348.00
2022-12-29T12:09:09.714Z,1300.00
2022-12-29T12:10:09.681Z,1280.00
2022-12-29T12:11:09.676Z,1220.00
2022-12-29T12:12:09.669Z,1172.00
2022-12-29T12:13:09.653Z,1160.00
2022-12-29T12:14:10.671Z,1036.00
2022-12-29T12:15:09.640Z,916.00
2022-12-29T12:16:09.668Z,840.00
2022-12-29T12:17:09.623Z,964.00
2022-12-29T12:18:09.605Z,988.00
2022-12-29T12:19:09.627Z,968.00
2022-12-29T12:20:09.589Z,940.00
2022-12-29T12:21:09.593Z,944.00
2022-12-29T12:22:09.572Z,960.00
2022-12-29T12:23:09.601Z,924.00
2022-12-29T12:24:09.566Z,932.00
2022-12-29T12:25:09.589Z,928.00
2022-12-29T12:26:09.533Z,908.00
2022-12-29T12:27:09.525Z,888.00
2022-12-29T12:28:09.517Z,828.00
2022-12-29T12:29:09.538Z,776.00
2022-12-29T12:30:09.501Z,748.00
2022-12-29T12:31:09.569Z,712.00
2022-12-29T12:32:09.479Z,736.00
2022-12-29T12:33:09.497Z,752.00
2022-12-29T12:34:09.476Z,656.00
2022-12-29T12:35:09.452Z,716.00
2022-12-29T12:36:09.450Z,728.00
2022-12-29T12:37:09.435Z,656.00
2022-12-29T12:38:09.426Z,692.00
2022-12-29T12:39:09.427Z,768.00
2022-12-29T12:40:09.407Z,772.00
2022-12-29T12:41:09.436Z,788.00
2022-12-29T12:42:09.382Z,856.00
2022-12-29T12:43:10.406Z,964.00
2022-12-29T12:44:09.387Z,880.00
2022-12-29T12:45:09.358Z,892.00
2022-12-29T12:46:09.385Z,844.00
2022-12-29T12:47:09.344Z,828.00
2022-12-29T12:48:09.335Z,748.00
2022-12-29T12:49:09.331Z,672.00
2022-12-29T12:50:09.317Z,668.00
2022-12-29T12:51:09.362Z,680.00
2022-12-29T12:52:09.293Z,644.00